| time (UTC) | temp C | wind direction | speed KPH | gust KPH | rain 1hr cm | rain 24hr cm | rain mn cm | humidity % | barometer mb |
| 20260507165000 | 17 | 203 | 8.0 | 22.5 | 0.00 | 0.00 | 0.00 | 50 | 1009.8 |
| 20260507164003 | 17 | 278 | 8.0 | 27.4 | 0.00 | 0.00 | 0.00 | 51 | 1009.9 |
| 20260507162039 | 17 | 255 | 6.4 | 20.9 | 0.00 | 0.00 | 0.00 | 49 | 1010.0 |
| 20260507162002 | 17 | 255 | 6.4 | 20.9 | 0.00 | 0.00 | 0.00 | 49 | 1010.0 |
| 20260507161004 | 16 | 303 | 9.7 | 19.3 | 0.00 | 0.00 | 0.00 | 54 | 1010.3 |
| 20260507160000 | 16 | 270 | 9.7 | 25.7 | 0.00 | 0.00 | 0.00 | 53 | 1010.5 |
| 20260507155007 | 16 | 248 | 9.7 | 24.1 | 0.00 | 0.00 | 0.00 | 57 | 1010.6 |
| 20260507154001 | 16 | 305 | 8.0 | 16.1 | 0.00 | 0.00 | 0.00 | 55 | 1010.6 |
| 20260507153003 | 16 | 289 | 9.7 | 29.0 | 0.00 | 0.00 | 0.00 | 56 | 1010.9 |
| 20260507152002 | 15 | 289 | 8.0 | 16.1 | 0.00 | 0.00 | 0.00 | 56 | 1011.0 |
| 20260507151002 | 15 | 295 | 8.0 | 17.7 | 0.00 | 0.00 | 0.00 | 58 | 1011.1 |
| 20260507145002 | 15 | 181 | 8.0 | 19.3 | 0.00 | 0.00 | 0.00 | 60 | 1011.7 |
| 20260507144130 | 15 | 303 | 4.8 | 16.1 | 0.00 | 0.00 | 0.00 | 60 | 1011.8 |
| 20260507144010 | 15 | 303 | 4.8 | 16.1 | 0.00 | 0.00 | 0.00 | 60 | 1011.8 |
| 20260507143636 | 15 | 320 | 3.2 | 14.5 | 0.00 | 0.00 | 0.00 | 65 | 1011.9 |
| 20260507142957 | 15 | 320 | 3.2 | 14.5 | 0.00 | 0.00 | 0.00 | 65 | 1011.9 |
| 20260507142608 | 14 | 216 | 4.8 | 14.5 | 0.00 | 0.00 | 0.00 | 66 | 1012.3 |
| 20260507142001 | 14 | 216 | 4.8 | 14.5 | 0.00 | 0.00 | 0.00 | 66 | 1012.3 |
| 20260507141046 | 13 | 195 | 4.8 | 12.9 | 0.00 | 0.00 | 0.00 | 67 | 1012.4 |
| 20260507141000 | 13 | 195 | 4.8 | 12.9 | 0.00 | 0.00 | 0.00 | 67 | 1012.4 |
| 20260507140200 | 13 | 267 | 3.2 | 11.3 | 0.00 | 0.00 | 0.00 | 67 | 1012.8 |
| 20260507135959 | 13 | 267 | 3.2 | 11.3 | 0.00 | 0.00 | 0.00 | 67 | 1012.8 |
| 20260507135004 | 12 | 305 | 3.2 | 14.5 | 0.00 | 0.00 | 0.00 | 70 | 1013.3 |
| 20260507133959 | 12 | 313 | 3.2 | 11.3 | 0.00 | 0.00 | 0.00 | 74 | 1013.3 |
| 20260507133114 | 12 | 292 | 3.2 | 9.7 | 0.00 | 0.00 | 0.00 | 72 | 1013.7 |
| 20260507132957 | 12 | 292 | 3.2 | 9.7 | 0.00 | 0.00 | 0.00 | 72 | 1013.7 |
| 20260507132007 | 11 | 241 | 1.6 | 8.0 | 0.00 | 0.00 | 0.00 | 76 | 1014.1 |
| 20260507131003 | 11 | 208 | 1.6 | 9.7 | 0.00 | 0.00 | 0.00 | 76 | 1014.7 |
| 20260507125752 | 10 | 331 | 1.6 | 6.4 | 0.00 | 0.00 | 0.00 | 81 | 1015.5 |
| 20260507125011 | 10 | 331 | 1.6 | 6.4 | 0.00 | 0.00 | 0.00 | 81 | 1015.5 |
| 20260507124002 | 9 | 194 | 0.0 | 6.4 | 0.00 | 0.00 | 0.00 | 83 | 1015.7 |
| 20260507123005 | 8 | 289 | 1.6 | 6.4 | 0.00 | 0.00 | 0.00 | 84 | 1015.8 |
| 20260507122004 | 8 | 289 | 1.6 | 4.8 | 0.00 | 0.00 | 0.00 | 85 | 1016.0 |
| 20260507121002 | 7 | 239 | 0.0 | 3.2 | 0.00 | 0.00 | 0.00 | 87 | 1016.1 |
| 20260507114957 | 6 | 337 | 0.0 | 1.6 | 0.00 | 0.00 | 0.00 | 91 | 1016.5 |
| 20260507112004 | 5 | 150 | 0.0 | 0.0 | 0.00 | 0.00 | 0.00 | 94 | 1016.7 |
| 20260507111003 | 5 | 150 | 0.0 | 0.0 | 0.00 | 0.00 | 0.00 | 93 | 1016.6 |
| 20260507110002 | 5 | 150 | 0.0 | 0.0 | 0.00 | 0.00 | 0.00 | 94 | 1016.5 |
| 20260507105001 | 5 | 150 | 0.0 | 0.0 | 0.00 | 0.00 | 0.00 | 94 | 1016.6 |
| 20260507104002 | 4 | 150 | 0.0 | 0.0 | 0.00 | 0.00 | 0.00 | 93 | 1016.5 |
| 20260507103002 | 4 | 150 | 0.0 | 0.0 | 0.00 | 0.00 | 0.00 | 92 | 1016.5 |
| 20260507102002 | 5 | 150 | 0.0 | 0.0 | 0.00 | 0.00 | 0.00 | 92 | 1016.5 |
| 20260507100959 | 5 | 150 | 0.0 | 0.0 | 0.00 | 0.00 | 0.00 | 91 | 1016.5 |
| 20260507095009 | 5 | 150 | 0.0 | 0.0 | 0.00 | 0.00 | 0.00 | 89 | 1016.5 |
| 20260507094011 | 6 | 150 | 0.0 | 0.0 | 0.00 | 0.00 | 0.00 | 88 | 1016.5 |
| 20260507092010 | 6 | 150 | 0.0 | 0.0 | 0.00 | 0.00 | 0.00 | 88 | 1016.6 |
| 20260507091000 | 5 | 188 | 0.0 | 1.6 | 0.00 | 0.00 | 0.00 | 90 | 1016.7 |
| 20260507085959 | 5 | 265 | 0.0 | 0.0 | 0.00 | 0.00 | 0.00 | 89 | 1016.7 |
| 20260507084959 | 5 | 265 | 0.0 | 0.0 | 0.00 | 0.00 | 0.00 | 89 | 1016.7 |
| 20260507084009 | 5 | 265 | 0.0 | 0.0 | 0.00 | 0.00 | 0.00 | 89 | 1016.7 |
| 20260507083000 | 5 | 265 | 0.0 | 0.0 | 0.00 | 0.00 | 0.00 | 90 | 1016.8 |
| 20260507082003 | 5 | 265 | 0.0 | 0.0 | 0.00 | 0.00 | 0.00 | 88 | 1016.8 |
| 20260507074958 | 6 | 265 | 0.0 | 0.0 | 0.00 | 0.00 | 0.00 | 86 | 1016.6 |
| 20260507071003 | 6 | 265 | 0.0 | 0.0 | 0.00 | 0.00 | 0.00 | 83 | 1016.6 |
| 20260507064957 | 7 | 265 | 0.0 | 0.0 | 0.00 | 0.00 | 0.00 | 82 | 1016.7 |
| 20260507063007 | 7 | 265 | 0.0 | 1.6 | 0.00 | 0.00 | 0.00 | 82 | 1016.8 |
| 20260507062005 | 7 | 302 | 0.0 | 0.0 | 0.00 | 0.00 | 0.00 | 84 | 1016.8 |
| 20260507060002 | 8 | 302 | 0.0 | 1.6 | 0.00 | 0.00 | 0.00 | 82 | 1016.8 |
| 20260507055006 | 8 | 302 | 0.0 | 0.0 | 0.00 | 0.00 | 0.00 | 82 | 1016.8 |
| 20260507054009 | 8 | 327 | 0.0 | 0.0 | 0.00 | 0.00 | 0.00 | 85 | 1017.0 |
| 20260507053002 | 7 | 327 | 0.0 | 0.0 | 0.00 | 0.00 | 0.00 | 88 | 1017.1 |
| 20260507051958 | 7 | 327 | 0.0 | 0.0 | 0.00 | 0.00 | 0.00 | 91 | 1017.0 |
| 20260507051008 | 7 | 327 | 0.0 | 0.0 | 0.00 | 0.00 | 0.00 | 91 | 1017.0 |
| 20260507050004 | 7 | 327 | 0.0 | 0.0 | 0.00 | 0.00 | 0.00 | 92 | 1016.8 |
| 20260507045004 | 7 | 327 | 0.0 | 0.0 | 0.00 | 0.00 | 0.05 | 92 | 1017.0 |
| 20260507044003 | 7 | 327 | 0.0 | 0.0 | 0.00 | 0.00 | 0.05 | 92 | 1017.0 |
| 20260507041959 | 7 | 327 | 0.0 | 0.0 | 0.00 | 0.00 | 0.05 | 92 | 1017.1 |
| 20260507040958 | 6 | 327 | 0.0 | 0.0 | 0.00 | 0.00 | 0.05 | 91 | 1017.1 |
| 20260507040004 | 6 | 327 | 0.0 | 0.0 | 0.00 | 0.00 | 0.05 | 92 | 1017.1 |
| 20260507035009 | 6 | 327 | 0.0 | 0.0 | 0.00 | 0.00 | 0.05 | 92 | 1017.3 |
| 20260507034006 | 6 | 327 | 0.0 | 0.0 | 0.00 | 0.00 | 0.05 | 89 | 1017.3 |
| 20260507033004 | 6 | 327 | 0.0 | 0.0 | 0.00 | 0.00 | 0.05 | 88 | 1017.2 |
| 20260507032008 | 6 | 327 | 0.0 | 0.0 | 0.00 | 0.00 | 0.05 | 86 | 1017.2 |
| 20260507031006 | 6 | 327 | 0.0 | 0.0 | 0.00 | 0.00 | 0.05 | 84 | 1016.8 |
| 20260507030000 | 6 | 327 | 0.0 | 0.0 | 0.00 | 0.00 | 0.05 | 83 | 1016.6 |
| 20260507024958 | 6 | 327 | 0.0 | 0.0 | 0.00 | 0.00 | 0.05 | 82 | 1016.4 |
| 20260507024010 | 7 | 327 | 0.0 | 0.0 | 0.00 | 0.00 | 0.05 | 81 | 1016.1 |
| 20260507021011 | 8 | 327 | 0.0 | 0.0 | 0.00 | 0.00 | 0.05 | 73 | 1015.1 |
| 20260507014959 | 9 | 327 | 0.0 | 0.0 | 0.00 | 0.00 | 0.05 | 68 | 1014.4 |
| 20260507014419 | 10 | 327 | 0.0 | 0.0 | 0.00 | 0.00 | 0.05 | 71 | 1014.0 |
| 20260507014011 | 10 | 327 | 0.0 | 0.0 | 0.00 | 0.00 | 0.05 | 71 | 1014.0 |
| 20260507013038 | 11 | 327 | 0.0 | 0.0 | 0.00 | 0.00 | 0.05 | 72 | 1013.7 |
| 20260507013000 | 11 | 327 | 0.0 | 0.0 | 0.00 | 0.00 | 0.05 | 72 | 1013.7 |
| 20260507012005 | 12 | 327 | 0.0 | 0.0 | 0.00 | 0.00 | 0.05 | 65 | 1013.2 |
| 20260507010959 | 13 | 327 | 0.0 | 0.0 | 0.00 | 0.00 | 0.05 | 60 | 1012.9 |
| 20260507005958 | 14 | 327 | 0.0 | 0.0 | 0.00 | 0.00 | 0.05 | 50 | 1012.6 |
| 20260507003958 | 15 | 327 | 0.0 | 0.0 | 0.00 | 0.00 | 0.05 | 40 | 1012.5 |
| 20260507002001 | 15 | 327 | 0.0 | 8.0 | 0.00 | 0.00 | 0.05 | 39 | 1012.5 |
| 20260507000959 | 15 | 322 | 1.6 | 11.3 | 0.00 | 0.00 | 0.05 | 35 | 1012.4 |
| 20260506234007 | 16 | 323 | 4.8 | 9.7 | 0.00 | 0.00 | 0.05 | 34 | 1012.5 |
| 20260506233000 | 16 | 341 | 8.0 | 16.1 | 0.00 | 0.00 | 0.05 | 37 | 1012.4 |
| 20260506232009 | 15 | 306 | 9.7 | 16.1 | 0.00 | 0.00 | 0.05 | 34 | 1012.4 |
| 20260506230959 | 15 | 319 | 9.7 | 19.3 | 0.00 | 0.00 | 0.05 | 32 | 1012.4 |
| 20260506230007 | 16 | 312 | 8.0 | 16.1 | 0.00 | 0.00 | 0.05 | 34 | 1012.4 |
| 20260506225006 | 16 | 319 | 6.4 | 12.9 | 0.00 | 0.00 | 0.05 | 35 | 1012.3 |
| 20260506224010 | 16 | 313 | 8.0 | 12.9 | 0.00 | 0.00 | 0.05 | 36 | 1012.2 |
| 20260506222959 | 16 | 326 | 3.2 | 8.0 | 0.00 | 0.00 | 0.05 | 36 | 1012.2 |
| 20260506221958 | 16 | 337 | 4.8 | 12.9 | 0.00 | 0.00 | 0.05 | 35 | 1012.3 |
| 20260506215957 | 16 | 7 | 4.8 | 11.3 | 0.00 | 0.00 | 0.05 | 33 | 1012.6 |
| 20260506215008 | 16 | 336 | 6.4 | 14.5 | 0.00 | 0.00 | 0.05 | 36 | 1012.7 |
| 20260506213957 | 15 | 336 | 11.3 | 24.1 | 0.00 | 0.00 | 0.05 | 36 | 1012.7 |
| 20260506213007 | 16 | 331 | 8.0 | 17.7 | 0.00 | 0.00 | 0.05 | 36 | 1012.9 |
| 20260506212009 | 16 | 302 | 6.4 | 16.1 | 0.00 | 0.00 | 0.05 | 38 | 1013.1 |
| 20260506211007 | 16 | 324 | 8.0 | 19.3 | 0.00 | 0.00 | 0.05 | 36 | 1013.2 |
| 20260506205004 | 16 | 8 | 8.0 | 16.1 | 0.00 | 0.00 | 0.05 | 35 | 1013.6 |
| 20260506204001 | 16 | 348 | 6.4 | 19.3 | 0.00 | 0.00 | 0.05 | 36 | 1013.9 |
| 20260506201957 | 16 | 305 | 8.0 | 24.1 | 0.00 | 0.00 | 0.05 | 35 | 1014.1 |
| 20260506200959 | 15 | 334 | 11.3 | 24.1 | 0.00 | 0.00 | 0.05 | 38 | 1014.2 |
| 20260506194001 | 15 | 341 | 9.7 | 20.9 | 0.00 | 0.00 | 0.05 | 37 | 1014.4 |
| 20260506193000 | 15 | 331 | 6.4 | 14.5 | 0.00 | 0.00 | 0.05 | 38 | 1014.5 |
| 20260506192002 | 15 | 322 | 6.4 | 14.5 | 0.00 | 0.00 | 0.05 | 34 | 1014.6 |
| 20260506191004 | 15 | 310 | 8.0 | 16.1 | 0.00 | 0.00 | 0.05 | 35 | 1014.6 |
| 20260506190007 | 15 | 323 | 9.7 | 17.7 | 0.00 | 0.00 | 0.05 | 33 | 1014.6 |
| 20260506185000 | 15 | 333 | 8.0 | 17.7 | 0.00 | 0.00 | 0.05 | 45 | 1014.6 |
| 20260506184004 | 15 | 333 | 9.7 | 24.1 | 0.00 | 0.00 | 0.05 | 43 | 1014.8 |
| 20260506181009 | 14 | 322 | 8.0 | 17.7 | 0.00 | 0.00 | 0.05 | 40 | 1015.1 |
| 20260506180005 | 14 | 334 | 4.8 | 14.5 | 0.00 | 0.00 | 0.05 | 38 | 1015.2 |
| 20260506175003 | 13 | 1 | 8.0 | 16.1 | 0.00 | 0.00 | 0.05 | 42 | 1015.2 |
| 20260506174001 | 13 | 348 | 8.0 | 17.7 | 0.00 | 0.00 | 0.05 | 40 | 1015.2 |
| 20260506172008 | 13 | 317 | 8.0 | 14.5 | 0.00 | 0.00 | 0.05 | 40 | 1015.2 |